sensor_id;sensor_type;location;lat;lon;timestamp;P1;durP1;ratioP1;P2;durP2;ratioP2
5684;SDS011;2865;53.114;9.130;2022-10-16T00:01:28;7.00;;;3.10;;
5684;SDS011;2865;53.114;9.130;2022-10-16T00:03:52;3.10;;;2.43;;
5684;SDS011;2865;53.114;9.130;2022-10-16T00:06:18;3.10;;;2.80;;
5684;SDS011;2865;53.114;9.130;2022-10-16T00:08:43;3.53;;;2.50;;
5684;SDS011;2865;53.114;9.130;2022-10-16T00:11:10;2.30;;;2.20;;
5684;SDS011;2865;53.114;9.130;2022-10-16T00:13:35;2.73;;;2.53;;
5684;SDS011;2865;53.114;9.130;2022-10-16T00:15:59;2.00;;;1.80;;
5684;SDS011;2865;53.114;9.130;2022-10-16T00:18:24;2.93;;;2.43;;
5684;SDS011;2865;53.114;9.130;2022-10-16T00:20:50;2.40;;;2.20;;
5684;SDS011;2865;53.114;9.130;2022-10-16T00:23:15;2.60;;;2.20;;
5684;SDS011;2865;53.114;9.130;2022-10-16T00:25:40;2.67;;;2.30;;
5684;SDS011;2865;53.114;9.130;2022-10-16T00:28:06;7.90;;;4.10;;
5684;SDS011;2865;53.114;9.130;2022-10-16T00:30:31;2.30;;;2.10;;
5684;SDS011;2865;53.114;9.130;2022-10-16T00:32:56;6.80;;;2.03;;
5684;SDS011;2865;53.114;9.130;2022-10-16T00:35:22;2.27;;;2.03;;
5684;SDS011;2865;53.114;9.130;2022-10-16T00:37:47;2.70;;;2.27;;
5684;SDS011;2865;53.114;9.130;2022-10-16T00:40:13;1.97;;;1.87;;
5684;SDS011;2865;53.114;9.130;2022-10-16T00:42:38;5.43;;;1.97;;
5684;SDS011;2865;53.114;9.130;2022-10-16T00:45:04;7.90;;;1.90;;
5684;SDS011;2865;53.114;9.130;2022-10-16T00:47:32;2.30;;;1.93;;
5684;SDS011;2865;53.114;9.130;2022-10-16T00:50:02;2.53;;;2.20;;
5684;SDS011;2865;53.114;9.130;2022-10-16T00:52:25;9.83;;;1.97;;
5684;SDS011;2865;53.114;9.130;2022-10-16T00:54:50;4.50;;;1.80;;
5684;SDS011;2865;53.114;9.130;2022-10-16T00:57:16;1.60;;;1.50;;
5684;SDS011;2865;53.114;9.130;2022-10-16T00:59:41;2.17;;;1.90;;
5684;SDS011;2865;53.114;9.130;2022-10-16T01:02:10;1.93;;;1.83;;
5684;SDS011;2865;53.114;9.130;2022-10-16T01:04:34;2.13;;;1.93;;
5684;SDS011;2865;53.114;9.130;2022-10-16T01:07:01;2.10;;;1.80;;
5684;SDS011;2865;53.114;9.130;2022-10-16T01:09:29;5.87;;;2.27;;
5684;SDS011;2865;53.114;9.130;2022-10-16T01:12:28;2.63;;;2.20;;
5684;SDS011;2865;53.114;9.130;2022-10-16T01:14:53;3.87;;;1.90;;
5684;SDS011;2865;53.114;9.130;2022-10-16T01:17:18;2.83;;;2.63;;
5684;SDS011;2865;53.114;9.130;2022-10-16T01:19:50;2.30;;;2.20;;
5684;SDS011;2865;53.114;9.130;2022-10-16T01:22:15;4.17;;;2.00;;
5684;SDS011;2865;53.114;9.130;2022-10-16T01:24:44;2.33;;;1.97;;
5684;SDS011;2865;53.114;9.130;2022-10-16T01:27:13;5.80;;;2.43;;
5684;SDS011;2865;53.114;9.130;2022-10-16T01:29:44;2.80;;;2.30;;
5684;SDS011;2865;53.114;9.130;2022-10-16T01:32:24;3.30;;;2.17;;
5684;SDS011;2865;53.114;9.130;2022-10-16T01:34:52;4.23;;;2.07;;
5684;SDS011;2865;53.114;9.130;2022-10-16T01:37:25;2.50;;;2.20;;
5684;SDS011;2865;53.114;9.130;2022-10-16T01:39:46;2.30;;;2.10;;
5684;SDS011;2865;53.114;9.130;2022-10-16T01:42:15;3.10;;;2.13;;
5684;SDS011;2865;53.114;9.130;2022-10-16T01:44:40;3.70;;;2.57;;
5684;SDS011;2865;53.114;9.130;2022-10-16T01:47:05;4.60;;;2.60;;
5684;SDS011;2865;53.114;9.130;2022-10-16T01:49:31;11.57;;;2.87;;
5684;SDS011;2865;53.114;9.130;2022-10-16T01:51:56;3.70;;;1.93;;
5684;SDS011;2865;53.114;9.130;2022-10-16T01:54:21;2.80;;;2.13;;
5684;SDS011;2865;53.114;9.130;2022-10-16T01:56:47;2.50;;;2.30;;
5684;SDS011;2865;53.114;9.130;2022-10-16T01:59:14;2.13;;;2.03;;
5684;SDS011;2865;53.114;9.130;2022-10-16T02:01:38;4.07;;;2.90;;
5684;SDS011;2865;53.114;9.130;2022-10-16T02:04:08;5.20;;;2.73;;
5684;SDS011;2865;53.114;9.130;2022-10-16T02:06:29;2.60;;;2.40;;
5684;SDS011;2865;53.114;9.130;2022-10-16T02:08:54;4.47;;;2.53;;
5684;SDS011;2865;53.114;9.130;2022-10-16T02:11:20;2.80;;;2.60;;
5684;SDS011;2865;53.114;9.130;2022-10-16T02:13:46;2.50;;;2.17;;
5684;SDS011;2865;53.114;9.130;2022-10-16T02:16:11;4.03;;;2.43;;
5684;SDS011;2865;53.114;9.130;2022-10-16T02:18:36;4.00;;;2.37;;
5684;SDS011;2865;53.114;9.130;2022-10-16T02:21:08;3.80;;;2.10;;
5684;SDS011;2865;53.114;9.130;2022-10-16T02:26:07;2.40;;;2.20;;
5684;SDS011;2865;53.114;9.130;2022-10-16T02:28:35;4.13;;;2.30;;
5684;SDS011;2865;53.114;9.130;2022-10-16T02:31:00;5.97;;;2.47;;
5684;SDS011;2865;53.114;9.130;2022-10-16T02:33:24;2.30;;;2.20;;
5684;SDS011;2865;53.114;9.130;2022-10-16T02:35:49;10.47;;;2.90;;
5684;SDS011;2865;53.114;9.130;2022-10-16T02:38:16;2.40;;;2.20;;
5684;SDS011;2865;53.114;9.130;2022-10-16T02:40:42;3.47;;;2.63;;
5684;SDS011;2865;53.114;9.130;2022-10-16T02:43:07;8.43;;;2.20;;
5684;SDS011;2865;53.114;9.130;2022-10-16T02:45:33;5.00;;;2.67;;
5684;SDS011;2865;53.114;9.130;2022-10-16T02:47:58;2.97;;;2.60;;
5684;SDS011;2865;53.114;9.130;2022-10-16T02:50:23;4.53;;;3.03;;
5684;SDS011;2865;53.114;9.130;2022-10-16T02:52:49;3.73;;;2.37;;
5684;SDS011;2865;53.114;9.130;2022-10-16T02:55:14;4.73;;;2.07;;
5684;SDS011;2865;53.114;9.130;2022-10-16T02:57:40;2.53;;;2.30;;
5684;SDS011;2865;53.114;9.130;2022-10-16T03:00:06;2.23;;;2.03;;
5684;SDS011;2865;53.114;9.130;2022-10-16T03:02:32;4.40;;;2.30;;
5684;SDS011;2865;53.114;9.130;2022-10-16T03:04:57;2.77;;;1.77;;
5684;SDS011;2865;53.114;9.130;2022-10-16T03:07:23;6.43;;;2.40;;
5684;SDS011;2865;53.114;9.130;2022-10-16T03:09:48;9.50;;;2.13;;
5684;SDS011;2865;53.114;9.130;2022-10-16T03:12:13;2.20;;;2.03;;
5684;SDS011;2865;53.114;9.130;2022-10-16T03:14:39;5.10;;;2.57;;
5684;SDS011;2865;53.114;9.130;2022-10-16T03:17:04;2.50;;;2.20;;
5684;SDS011;2865;53.114;9.130;2022-10-16T03:19:29;2.80;;;2.40;;
5684;SDS011;2865;53.114;9.130;2022-10-16T03:21:55;3.27;;;2.00;;
5684;SDS011;2865;53.114;9.130;2022-10-16T03:24:20;4.20;;;1.87;;
5684;SDS011;2865;53.114;9.130;2022-10-16T03:26:45;3.40;;;1.90;;
5684;SDS011;2865;53.114;9.130;2022-10-16T03:29:11;2.30;;;2.10;;
5684;SDS011;2865;53.114;9.130;2022-10-16T03:31:36;2.73;;;2.40;;
5684;SDS011;2865;53.114;9.130;2022-10-16T03:34:02;4.60;;;2.60;;
5684;SDS011;2865;53.114;9.130;2022-10-16T03:36:27;5.13;;;2.97;;
5684;SDS011;2865;53.114;9.130;2022-10-16T03:38:52;2.23;;;2.10;;
5684;SDS011;2865;53.114;9.130;2022-10-16T03:41:18;3.27;;;2.67;;
5684;SDS011;2865;53.114;9.130;2022-10-16T03:43:43;3.20;;;2.90;;
5684;SDS011;2865;53.114;9.130;2022-10-16T03:46:08;2.50;;;2.30;;
5684;SDS011;2865;53.114;9.130;2022-10-16T03:48:34;3.17;;;2.97;;
5684;SDS011;2865;53.114;9.130;2022-10-16T03:50:59;2.83;;;2.57;;
5684;SDS011;2865;53.114;9.130;2022-10-16T03:53:24;3.03;;;2.70;;
5684;SDS011;2865;53.114;9.130;2022-10-16T03:55:50;3.50;;;3.17;;
5684;SDS011;2865;53.114;9.130;2022-10-16T03:58:15;7.70;;;4.67;;
5684;SDS011;2865;53.114;9.130;2022-10-16T04:00:41;3.67;;;3.30;;
5684;SDS011;2865;53.114;9.130;2022-10-16T04:03:07;5.37;;;3.30;;
5684;SDS011;2865;53.114;9.130;2022-10-16T04:05:32;3.50;;;3.20;;
5684;SDS011;2865;53.114;9.130;2022-10-16T04:07:58;3.53;;;3.23;;
5684;SDS011;2865;53.114;9.130;2022-10-16T04:10:23;6.33;;;3.60;;
5684;SDS011;2865;53.114;9.130;2022-10-16T04:12:48;5.80;;;3.87;;
5684;SDS011;2865;53.114;9.130;2022-10-16T04:15:14;4.07;;;3.40;;
5684;SDS011;2865;53.114;9.130;2022-10-16T04:17:39;5.37;;;4.13;;
5684;SDS011;2865;53.114;9.130;2022-10-16T04:20:05;4.10;;;3.70;;
5684;SDS011;2865;53.114;9.130;2022-10-16T04:22:31;5.60;;;4.43;;
5684;SDS011;2865;53.114;9.130;2022-10-16T04:24:56;8.17;;;4.83;;
5684;SDS011;2865;53.114;9.130;2022-10-16T04:27:22;7.93;;;5.00;;
5684;SDS011;2865;53.114;9.130;2022-10-16T04:29:48;7.97;;;4.40;;
5684;SDS011;2865;53.114;9.130;2022-10-16T04:32:13;11.60;;;5.57;;
5684;SDS011;2865;53.114;9.130;2022-10-16T04:34:39;7.73;;;6.00;;
5684;SDS011;2865;53.114;9.130;2022-10-16T04:37:04;7.93;;;5.03;;
5684;SDS011;2865;53.114;9.130;2022-10-16T04:39:29;8.80;;;5.37;;
5684;SDS011;2865;53.114;9.130;2022-10-16T04:41:54;7.87;;;4.90;;
5684;SDS011;2865;53.114;9.130;2022-10-16T04:44:20;6.53;;;5.30;;
5684;SDS011;2865;53.114;9.130;2022-10-16T04:46:45;5.37;;;4.77;;
5684;SDS011;2865;53.114;9.130;2022-10-16T04:49:10;6.67;;;5.67;;
5684;SDS011;2865;53.114;9.130;2022-10-16T04:51:36;14.63;;;5.67;;
5684;SDS011;2865;53.114;9.130;2022-10-16T04:54:01;8.13;;;5.40;;
5684;SDS011;2865;53.114;9.130;2022-10-16T04:56:26;7.13;;;5.10;;
5684;SDS011;2865;53.114;9.130;2022-10-16T04:58:52;7.97;;;5.83;;
5684;SDS011;2865;53.114;9.130;2022-10-16T05:01:17;5.40;;;4.50;;
5684;SDS011;2865;53.114;9.130;2022-10-16T05:03:42;8.60;;;4.33;;
5684;SDS011;2865;53.114;9.130;2022-10-16T05:06:08;10.93;;;6.13;;
5684;SDS011;2865;53.114;9.130;2022-10-16T05:08:33;8.03;;;5.00;;
5684;SDS011;2865;53.114;9.130;2022-10-16T05:10:59;7.90;;;5.30;;
5684;SDS011;2865;53.114;9.130;2022-10-16T05:13:24;7.83;;;5.10;;
5684;SDS011;2865;53.114;9.130;2022-10-16T05:15:49;10.90;;;5.17;;
5684;SDS011;2865;53.114;9.130;2022-10-16T05:18:15;9.23;;;5.80;;
5684;SDS011;2865;53.114;9.130;2022-10-16T05:20:40;8.73;;;5.53;;
5684;SDS011;2865;53.114;9.130;2022-10-16T05:23:06;7.83;;;5.40;;
5684;SDS011;2865;53.114;9.130;2022-10-16T05:25:31;6.57;;;5.47;;
5684;SDS011;2865;53.114;9.130;2022-10-16T05:27:56;6.33;;;5.73;;
5684;SDS011;2865;53.114;9.130;2022-10-16T05:30:22;5.80;;;4.97;;
5684;SDS011;2865;53.114;9.130;2022-10-16T05:32:47;14.07;;;5.47;;
5684;SDS011;2865;53.114;9.130;2022-10-16T05:35:12;9.67;;;6.30;;
5684;SDS011;2865;53.114;9.130;2022-10-16T05:37:38;6.80;;;5.70;;
5684;SDS011;2865;53.114;9.130;2022-10-16T05:40:03;6.60;;;5.77;;
5684;SDS011;2865;53.114;9.130;2022-10-16T05:42:30;8.00;;;5.87;;
5684;SDS011;2865;53.114;9.130;2022-10-16T05:44:55;7.70;;;5.33;;
5684;SDS011;2865;53.114;9.130;2022-10-16T05:47:20;7.13;;;5.60;;
5684;SDS011;2865;53.114;9.130;2022-10-16T05:49:46;8.03;;;5.90;;
5684;SDS011;2865;53.114;9.130;2022-10-16T05:52:11;11.40;;;5.63;;
5684;SDS011;2865;53.114;9.130;2022-10-16T05:54:36;7.93;;;5.60;;
5684;SDS011;2865;53.114;9.130;2022-10-16T05:57:02;6.23;;;4.90;;
5684;SDS011;2865;53.114;9.130;2022-10-16T05:59:27;9.60;;;5.97;;
5684;SDS011;2865;53.114;9.130;2022-10-16T06:01:53;10.40;;;6.63;;
5684;SDS011;2865;53.114;9.130;2022-10-16T06:04:19;9.40;;;5.90;;
5684;SDS011;2865;53.114;9.130;2022-10-16T06:06:44;8.63;;;5.37;;
5684;SDS011;2865;53.114;9.130;2022-10-16T06:09:09;9.57;;;5.93;;
5684;SDS011;2865;53.114;9.130;2022-10-16T06:11:35;7.73;;;5.50;;
5684;SDS011;2865;53.114;9.130;2022-10-16T06:14:01;7.60;;;5.90;;
5684;SDS011;2865;53.114;9.130;2022-10-16T06:16:26;9.10;;;5.67;;
5684;SDS011;2865;53.114;9.130;2022-10-16T06:18:52;6.30;;;5.47;;
5684;SDS011;2865;53.114;9.130;2022-10-16T06:21:18;9.47;;;5.63;;
5684;SDS011;2865;53.114;9.130;2022-10-16T06:23:43;9.30;;;5.83;;
5684;SDS011;2865;53.114;9.130;2022-10-16T06:26:09;8.40;;;5.63;;
5684;SDS011;2865;53.114;9.130;2022-10-16T06:28:33;8.87;;;6.50;;
5684;SDS011;2865;53.114;9.130;2022-10-16T06:30:59;6.63;;;6.00;;
5684;SDS011;2865;53.114;9.130;2022-10-16T06:33:24;6.73;;;5.83;;
5684;SDS011;2865;53.114;9.130;2022-10-16T06:35:49;5.20;;;4.70;;
5684;SDS011;2865;53.114;9.130;2022-10-16T06:38:15;5.37;;;4.80;;
5684;SDS011;2865;53.114;9.130;2022-10-16T06:40:40;5.87;;;5.27;;
5684;SDS011;2865;53.114;9.130;2022-10-16T06:43:05;10.40;;;4.80;;
5684;SDS011;2865;53.114;9.130;2022-10-16T06:45:31;7.43;;;4.37;;
5684;SDS011;2865;53.114;9.130;2022-10-16T06:47:56;7.13;;;5.40;;
5684;SDS011;2865;53.114;9.130;2022-10-16T06:50:22;6.13;;;4.33;;
5684;SDS011;2865;53.114;9.130;2022-10-16T06:52:47;5.40;;;4.83;;
5684;SDS011;2865;53.114;9.130;2022-10-16T06:55:13;11.30;;;6.40;;
5684;SDS011;2865;53.114;9.130;2022-10-16T06:57:38;9.80;;;5.10;;
5684;SDS011;2865;53.114;9.130;2022-10-16T07:00:04;5.30;;;4.17;;
5684;SDS011;2865;53.114;9.130;2022-10-16T07:02:30;7.17;;;4.83;;
5684;SDS011;2865;53.114;9.130;2022-10-16T07:04:56;6.93;;;4.90;;
5684;SDS011;2865;53.114;9.130;2022-10-16T07:07:21;5.20;;;4.70;;
5684;SDS011;2865;53.114;9.130;2022-10-16T07:09:46;5.30;;;4.40;;
5684;SDS011;2865;53.114;9.130;2022-10-16T07:12:12;5.70;;;5.17;;
5684;SDS011;2865;53.114;9.130;2022-10-16T07:14:38;6.13;;;4.67;;
5684;SDS011;2865;53.114;9.130;2022-10-16T07:17:02;6.10;;;4.30;;
5684;SDS011;2865;53.114;9.130;2022-10-16T07:19:28;5.13;;;4.63;;
5684;SDS011;2865;53.114;9.130;2022-10-16T07:21:53;4.33;;;3.93;;
5684;SDS011;2865;53.114;9.130;2022-10-16T07:24:18;7.07;;;4.17;;
5684;SDS011;2865;53.114;9.130;2022-10-16T07:26:44;4.53;;;4.13;;
5684;SDS011;2865;53.114;9.130;2022-10-16T07:29:13;4.07;;;3.67;;
5684;SDS011;2865;53.114;9.130;2022-10-16T07:31:38;5.83;;;3.33;;
5684;SDS011;2865;53.114;9.130;2022-10-16T07:34:03;4.47;;;4.07;;
5684;SDS011;2865;53.114;9.130;2022-10-16T07:36:28;4.80;;;3.70;;
5684;SDS011;2865;53.114;9.130;2022-10-16T07:38:54;5.30;;;3.40;;
5684;SDS011;2865;53.114;9.130;2022-10-16T07:41:19;5.17;;;3.97;;
5684;SDS011;2865;53.114;9.130;2022-10-16T07:43:46;7.87;;;3.40;;
5684;SDS011;2865;53.114;9.130;2022-10-16T07:46:13;4.37;;;3.20;;
5684;SDS011;2865;53.114;9.130;2022-10-16T07:48:38;4.17;;;3.30;;
5684;SDS011;2865;53.114;9.130;2022-10-16T07:51:04;7.33;;;3.83;;
5684;SDS011;2865;53.114;9.130;2022-10-16T07:53:29;3.47;;;3.17;;
5684;SDS011;2865;53.114;9.130;2022-10-16T07:56:01;5.20;;;3.33;;
5684;SDS011;2865;53.114;9.130;2022-10-16T07:58:26;4.97;;;3.40;;
5684;SDS011;2865;53.114;9.130;2022-10-16T08:00:51;3.90;;;3.10;;
5684;SDS011;2865;53.114;9.130;2022-10-16T08:03:16;3.83;;;3.53;;
5684;SDS011;2865;53.114;9.130;2022-10-16T08:05:41;3.33;;;3.03;;
5684;SDS011;2865;53.114;9.130;2022-10-16T08:08:10;5.50;;;3.43;;
5684;SDS011;2865;53.114;9.130;2022-10-16T08:10:32;4.20;;;3.20;;
5684;SDS011;2865;53.114;9.130;2022-10-16T08:12:58;3.20;;;2.97;;
5684;SDS011;2865;53.114;9.130;2022-10-16T08:15:24;2.53;;;2.33;;
5684;SDS011;2865;53.114;9.130;2022-10-16T08:17:54;3.00;;;2.70;;
5684;SDS011;2865;53.114;9.130;2022-10-16T08:20:19;4.10;;;2.90;;
5684;SDS011;2865;53.114;9.130;2022-10-16T08:22:44;2.40;;;2.17;;
5684;SDS011;2865;53.114;9.130;2022-10-16T08:25:10;4.10;;;2.50;;
5684;SDS011;2865;53.114;9.130;2022-10-16T08:27:36;5.47;;;2.93;;
5684;SDS011;2865;53.114;9.130;2022-10-16T08:30:01;4.80;;;3.20;;
5684;SDS011;2865;53.114;9.130;2022-10-16T08:32:27;3.10;;;2.80;;
5684;SDS011;2865;53.114;9.130;2022-10-16T08:34:52;2.47;;;2.20;;
5684;SDS011;2865;53.114;9.130;2022-10-16T08:37:18;3.13;;;2.83;;
5684;SDS011;2865;53.114;9.130;2022-10-16T08:39:43;3.03;;;2.33;;
5684;SDS011;2865;53.114;9.130;2022-10-16T08:42:14;4.17;;;3.33;;
5684;SDS011;2865;53.114;9.130;2022-10-16T08:47:35;2.80;;;2.60;;
5684;SDS011;2865;53.114;9.130;2022-10-16T08:50:02;5.17;;;2.40;;
5684;SDS011;2865;53.114;9.130;2022-10-16T08:52:29;2.50;;;2.33;;
5684;SDS011;2865;53.114;9.130;2022-10-16T08:54:51;2.60;;;2.40;;
5684;SDS011;2865;53.114;9.130;2022-10-16T08:57:18;2.47;;;2.30;;
5684;SDS011;2865;53.114;9.130;2022-10-16T08:59:42;2.47;;;2.27;;
5684;SDS011;2865;53.114;9.130;2022-10-16T09:02:16;4.47;;;2.60;;
5684;SDS011;2865;53.114;9.130;2022-10-16T09:04:54;5.50;;;2.33;;
5684;SDS011;2865;53.114;9.130;2022-10-16T09:10:16;2.90;;;1.93;;
5684;SDS011;2865;53.114;9.130;2022-10-16T09:15:19;2.10;;;1.77;;
5684;SDS011;2865;53.114;9.130;2022-10-16T09:17:45;3.33;;;2.27;;
5684;SDS011;2865;53.114;9.130;2022-10-16T09:23:00;3.70;;;1.80;;
5684;SDS011;2865;53.114;9.130;2022-10-16T09:25:41;2.70;;;1.60;;
5684;SDS011;2865;53.114;9.130;2022-10-16T09:28:07;2.70;;;1.50;;
5684;SDS011;2865;53.114;9.130;2022-10-16T09:30:31;4.60;;;2.53;;
5684;SDS011;2865;53.114;9.130;2022-10-16T09:32:57;2.60;;;2.00;;
5684;SDS011;2865;53.114;9.130;2022-10-16T09:35:22;2.97;;;1.70;;
5684;SDS011;2865;53.114;9.130;2022-10-16T09:37:49;2.73;;;1.63;;
5684;SDS011;2865;53.114;9.130;2022-10-16T09:40:24;5.23;;;1.70;;
5684;SDS011;2865;53.114;9.130;2022-10-16T09:42:39;6.10;;;1.57;;
5684;SDS011;2865;53.114;9.130;2022-10-16T09:45:05;2.00;;;1.40;;
5684;SDS011;2865;53.114;9.130;2022-10-16T09:47:32;2.80;;;1.50;;
5684;SDS011;2865;53.114;9.130;2022-10-16T09:50:00;3.40;;;1.43;;
5684;SDS011;2865;53.114;9.130;2022-10-16T09:52:24;1.57;;;1.20;;
5684;SDS011;2865;53.114;9.130;2022-10-16T09:54:55;3.87;;;1.63;;
5684;SDS011;2865;53.114;9.130;2022-10-16T09:57:20;2.60;;;1.40;;
5684;SDS011;2865;53.114;9.130;2022-10-16T09:59:47;1.77;;;1.37;;
5684;SDS011;2865;53.114;9.130;2022-10-16T10:02:12;5.13;;;1.30;;
5684;SDS011;2865;53.114;9.130;2022-10-16T10:04:38;5.33;;;1.67;;
5684;SDS011;2865;53.114;9.130;2022-10-16T10:07:02;2.50;;;1.13;;
5684;SDS011;2865;53.114;9.130;2022-10-16T10:09:29;1.97;;;1.23;;
5684;SDS011;2865;53.114;9.130;2022-10-16T10:11:56;5.40;;;1.53;;
5684;SDS011;2865;53.114;9.130;2022-10-16T10:14:23;2.93;;;1.80;;
5684;SDS011;2865;53.114;9.130;2022-10-16T10:16:48;1.77;;;1.20;;
5684;SDS011;2865;53.114;9.130;2022-10-16T10:19:16;4.43;;;1.30;;
5684;SDS011;2865;53.114;9.130;2022-10-16T10:21:40;3.47;;;2.13;;
5684;SDS011;2865;53.114;9.130;2022-10-16T10:24:09;2.17;;;1.20;;
5684;SDS011;2865;53.114;9.130;2022-10-16T10:26:31;3.03;;;1.37;;
5684;SDS011;2865;53.114;9.130;2022-10-16T10:29:06;2.90;;;1.50;;
5684;SDS011;2865;53.114;9.130;2022-10-16T10:31:39;7.20;;;1.60;;
5684;SDS011;2865;53.114;9.130;2022-10-16T10:36:59;7.80;;;1.93;;
5684;SDS011;2865;53.114;9.130;2022-10-16T10:39:25;5.13;;;1.30;;
5684;SDS011;2865;53.114;9.130;2022-10-16T10:41:56;1.80;;;1.10;;
5684;SDS011;2865;53.114;9.130;2022-10-16T10:44:37;5.40;;;1.47;;
5684;SDS011;2865;53.114;9.130;2022-10-16T10:47:31;5.07;;;1.30;;
5684;SDS011;2865;53.114;9.130;2022-10-16T10:50:14;7.57;;;1.00;;
5684;SDS011;2865;53.114;9.130;2022-10-16T10:55:31;2.60;;;1.30;;
5684;SDS011;2865;53.114;9.130;2022-10-16T11:00:42;1.43;;;1.07;;
5684;SDS011;2865;53.114;9.130;2022-10-16T11:03:27;3.70;;;1.60;;
5684;SDS011;2865;53.114;9.130;2022-10-16T11:05:58;1.73;;;1.30;;
5684;SDS011;2865;53.114;9.130;2022-10-16T11:08:27;1.87;;;1.23;;
5684;SDS011;2865;53.114;9.130;2022-10-16T11:13:36;2.20;;;1.10;;
5684;SDS011;2865;53.114;9.130;2022-10-16T11:16:03;2.43;;;1.27;;
5684;SDS011;2865;53.114;9.130;2022-10-16T11:18:45;4.40;;;1.17;;
5684;SDS011;2865;53.114;9.130;2022-10-16T11:21:10;3.87;;;1.37;;
5684;SDS011;2865;53.114;9.130;2022-10-16T11:23:40;5.93;;;1.50;;
5684;SDS011;2865;53.114;9.130;2022-10-16T11:26:04;3.03;;;1.03;;
5684;SDS011;2865;53.114;9.130;2022-10-16T11:28:32;1.70;;;1.20;;
5684;SDS011;2865;53.114;9.130;2022-10-16T11:30:57;4.70;;;1.63;;
5684;SDS011;2865;53.114;9.130;2022-10-16T11:33:25;4.50;;;1.40;;
5684;SDS011;2865;53.114;9.130;2022-10-16T11:35:55;2.07;;;1.07;;
5684;SDS011;2865;53.114;9.130;2022-10-16T11:38:38;2.00;;;0.90;;
5684;SDS011;2865;53.114;9.130;2022-10-16T11:41:03;5.13;;;1.63;;
5684;SDS011;2865;53.114;9.130;2022-10-16T11:43:29;5.33;;;1.27;;
5684;SDS011;2865;53.114;9.130;2022-10-16T11:45:54;2.70;;;1.37;;
5684;SDS011;2865;53.114;9.130;2022-10-16T11:48:26;1.03;;;0.90;;
5684;SDS011;2865;53.114;9.130;2022-10-16T11:50:52;3.50;;;1.17;;
5684;SDS011;2865;53.114;9.130;2022-10-16T11:53:56;7.27;;;1.10;;
5684;SDS011;2865;53.114;9.130;2022-10-16T11:56:07;2.43;;;1.00;;
5684;SDS011;2865;53.114;9.130;2022-10-16T11:58:35;2.73;;;1.30;;
5684;SDS011;2865;53.114;9.130;2022-10-16T12:01:11;1.70;;;0.93;;
5684;SDS011;2865;53.114;9.130;2022-10-16T12:03:35;1.93;;;0.90;;
5684;SDS011;2865;53.114;9.130;2022-10-16T12:06:11;3.97;;;1.40;;
5684;SDS011;2865;53.114;9.130;2022-10-16T12:08:46;2.03;;;0.90;;
5684;SDS011;2865;53.114;9.130;2022-10-16T12:13:46;2.00;;;1.10;;
5684;SDS011;2865;53.114;9.130;2022-10-16T12:16:20;5.37;;;1.63;;
5684;SDS011;2865;53.114;9.130;2022-10-16T12:18:46;3.33;;;1.30;;
5684;SDS011;2865;53.114;9.130;2022-10-16T12:21:11;5.60;;;1.43;;
5684;SDS011;2865;53.114;9.130;2022-10-16T12:23:37;2.53;;;1.10;;
5684;SDS011;2865;53.114;9.130;2022-10-16T12:26:02;2.47;;;1.10;;
5684;SDS011;2865;53.114;9.130;2022-10-16T12:28:31;2.67;;;1.03;;
5684;SDS011;2865;53.114;9.130;2022-10-16T12:30:57;3.10;;;1.90;;
5684;SDS011;2865;53.114;9.130;2022-10-16T12:33:24;6.20;;;1.50;;
5684;SDS011;2865;53.114;9.130;2022-10-16T12:35:58;2.63;;;1.37;;
5684;SDS011;2865;53.114;9.130;2022-10-16T12:38:32;5.17;;;1.43;;
5684;SDS011;2865;53.114;9.130;2022-10-16T12:40:59;4.73;;;1.37;;
5684;SDS011;2865;53.114;9.130;2022-10-16T12:43:34;1.47;;;1.17;;
5684;SDS011;2865;53.114;9.130;2022-10-16T12:45:59;2.60;;;0.90;;
5684;SDS011;2865;53.114;9.130;2022-10-16T12:48:24;7.13;;;1.47;;
5684;SDS011;2865;53.114;9.130;2022-10-16T12:50:49;4.17;;;1.17;;
5684;SDS011;2865;53.114;9.130;2022-10-16T12:53:22;5.13;;;1.47;;
5684;SDS011;2865;53.114;9.130;2022-10-16T12:56:23;2.00;;;1.20;;
5684;SDS011;2865;53.114;9.130;2022-10-16T12:59:10;1.30;;;1.10;;
5684;SDS011;2865;53.114;9.130;2022-10-16T13:01:48;2.47;;;1.10;;
5684;SDS011;2865;53.114;9.130;2022-10-16T13:04:14;2.23;;;1.10;;
5684;SDS011;2865;53.114;9.130;2022-10-16T13:06:57;2.97;;;1.60;;
5684;SDS011;2865;53.114;9.130;2022-10-16T13:09:37;2.10;;;1.10;;
5684;SDS011;2865;53.114;9.130;2022-10-16T13:14:41;3.57;;;1.20;;
5684;SDS011;2865;53.114;9.130;2022-10-16T13:17:09;2.90;;;0.90;;
5684;SDS011;2865;53.114;9.130;2022-10-16T13:20:00;6.53;;;1.37;;
5684;SDS011;2865;53.114;9.130;2022-10-16T13:22:26;2.33;;;1.03;;
5684;SDS011;2865;53.114;9.130;2022-10-16T13:27:55;6.50;;;1.57;;
5684;SDS011;2865;53.114;9.130;2022-10-16T13:30:21;4.13;;;1.30;;
5684;SDS011;2865;53.114;9.130;2022-10-16T13:32:47;6.60;;;1.50;;
5684;SDS011;2865;53.114;9.130;2022-10-16T13:35:20;3.90;;;1.47;;
5684;SDS011;2865;53.114;9.130;2022-10-16T13:38:03;2.67;;;1.40;;
5684;SDS011;2865;53.114;9.130;2022-10-16T13:40:24;7.80;;;1.63;;
5684;SDS011;2865;53.114;9.130;2022-10-16T13:42:50;2.17;;;1.30;;
5684;SDS011;2865;53.114;9.130;2022-10-16T13:45:17;3.43;;;1.20;;
5684;SDS011;2865;53.114;9.130;2022-10-16T13:47:42;8.30;;;1.47;;
5684;SDS011;2865;53.114;9.130;2022-10-16T13:50:12;3.30;;;1.43;;
5684;SDS011;2865;53.114;9.130;2022-10-16T13:52:37;3.33;;;1.27;;
5684;SDS011;2865;53.114;9.130;2022-10-16T13:55:02;2.17;;;1.20;;
5684;SDS011;2865;53.114;9.130;2022-10-16T13:57:29;4.40;;;1.23;;
5684;SDS011;2865;53.114;9.130;2022-10-16T13:59:54;2.53;;;1.17;;
5684;SDS011;2865;53.114;9.130;2022-10-16T14:02:22;4.67;;;1.70;;
5684;SDS011;2865;53.114;9.130;2022-10-16T14:04:56;4.93;;;1.27;;
5684;SDS011;2865;53.114;9.130;2022-10-16T14:07:24;5.50;;;1.60;;
5684;SDS011;2865;53.114;9.130;2022-10-16T14:09:49;3.67;;;1.00;;
5684;SDS011;2865;53.114;9.130;2022-10-16T14:12:13;4.17;;;1.27;;
5684;SDS011;2865;53.114;9.130;2022-10-16T14:14:41;2.90;;;1.40;;
5684;SDS011;2865;53.114;9.130;2022-10-16T14:17:05;2.50;;;1.57;;
5684;SDS011;2865;53.114;9.130;2022-10-16T14:19:31;2.20;;;1.00;;
5684;SDS011;2865;53.114;9.130;2022-10-16T14:21:56;3.17;;;1.70;;
5684;SDS011;2865;53.114;9.130;2022-10-16T14:24:36;2.47;;;1.00;;
5684;SDS011;2865;53.114;9.130;2022-10-16T14:27:02;3.67;;;1.47;;
5684;SDS011;2865;53.114;9.130;2022-10-16T14:29:28;2.70;;;1.40;;
5684;SDS011;2865;53.114;9.130;2022-10-16T14:31:57;2.87;;;1.03;;
5684;SDS011;2865;53.114;9.130;2022-10-16T14:34:26;3.47;;;1.37;;
5684;SDS011;2865;53.114;9.130;2022-10-16T14:36:51;1.57;;;1.03;;
5684;SDS011;2865;53.114;9.130;2022-10-16T14:39:18;4.67;;;1.63;;
5684;SDS011;2865;53.114;9.130;2022-10-16T14:41:45;6.67;;;1.50;;
5684;SDS011;2865;53.114;9.130;2022-10-16T14:44:09;2.73;;;1.17;;
5684;SDS011;2865;53.114;9.130;2022-10-16T14:46:35;2.70;;;1.20;;
5684;SDS011;2865;53.114;9.130;2022-10-16T14:49:01;2.30;;;1.17;;
5684;SDS011;2865;53.114;9.130;2022-10-16T14:51:27;3.20;;;1.27;;
5684;SDS011;2865;53.114;9.130;2022-10-16T14:53:53;1.93;;;1.10;;
5684;SDS011;2865;53.114;9.130;2022-10-16T14:56:19;5.90;;;1.30;;
5684;SDS011;2865;53.114;9.130;2022-10-16T14:58:44;2.27;;;1.20;;
5684;SDS011;2865;53.114;9.130;2022-10-16T15:01:09;2.40;;;1.20;;
5684;SDS011;2865;53.114;9.130;2022-10-16T15:03:35;1.40;;;1.30;;
5684;SDS011;2865;53.114;9.130;2022-10-16T15:06:00;2.30;;;1.40;;
5684;SDS011;2865;53.114;9.130;2022-10-16T15:08:26;3.67;;;1.47;;
5684;SDS011;2865;53.114;9.130;2022-10-16T15:10:51;4.73;;;1.53;;
5684;SDS011;2865;53.114;9.130;2022-10-16T15:13:17;4.43;;;1.33;;
5684;SDS011;2865;53.114;9.130;2022-10-16T15:15:44;1.50;;;0.93;;
5684;SDS011;2865;53.114;9.130;2022-10-16T15:18:08;5.00;;;1.43;;
5684;SDS011;2865;53.114;9.130;2022-10-16T15:20:34;7.73;;;2.30;;
5684;SDS011;2865;53.114;9.130;2022-10-16T15:23:01;5.47;;;1.33;;
5684;SDS011;2865;53.114;9.130;2022-10-16T15:25:27;1.77;;;1.67;;
5684;SDS011;2865;53.114;9.130;2022-10-16T15:27:51;3.50;;;1.40;;
5684;SDS011;2865;53.114;9.130;2022-10-16T15:30:16;2.23;;;1.53;;
5684;SDS011;2865;53.114;9.130;2022-10-16T15:32:42;2.60;;;1.10;;
5684;SDS011;2865;53.114;9.130;2022-10-16T15:35:08;2.23;;;1.33;;
5684;SDS011;2865;53.114;9.130;2022-10-16T15:37:33;7.10;;;1.73;;
5684;SDS011;2865;53.114;9.130;2022-10-16T15:39:58;9.50;;;1.77;;
5684;SDS011;2865;53.114;9.130;2022-10-16T15:42:23;2.20;;;1.37;;
5684;SDS011;2865;53.114;9.130;2022-10-16T15:44:49;2.90;;;1.30;;
5684;SDS011;2865;53.114;9.130;2022-10-16T15:47:14;2.40;;;1.10;;